Time;durP1;ratioP1;P1;durP2;ratioP2;P2;SDS_P1;SDS_P2;PMS_P1;PMS_P2;Temp;Humidity;BMP_temperature;BMP_pressure;BME280_temperature;BME280_humidity;BME280_pressure;Samples;Min_cycle;Max_cycle;Signal;HPM_P1;HPM_P2
2024/01/15 00:06:51;;;;;;;7.60;4.32;;;10.20;82.30;;;;;;6198189;23;20008;-81
2024/01/15 00:09:21;;;;;;;8.18;4.20;;;10.20;82.40;;;;;;6188197;23;20340;-81
2024/01/15 00:11:52;;;;;;;7.70;4.38;;;10.30;82.40;;;;;;6162101;23;20023;-81
2024/01/15 00:14:20;;;;;;;7.30;4.38;;;10.20;82.30;;;;;;6188584;23;19993;-81
2024/01/15 00:16:55;;;;;;;8.32;4.65;;;10.30;82.40;;;;;;6161088;23;20004;-81
2024/01/15 00:19:27;;;;;;;7.25;4.15;;;10.20;82.30;;;;;;6188406;23;20003;-81
2024/01/15 00:21:57;;;;;;;6.78;3.83;;;10.10;82.20;;;;;;6180536;23;19989;-81
2024/01/15 00:24:32;;;;;;;7.35;4.50;;;10.10;82.20;;;;;;6211791;23;20009;-81
2024/01/15 00:27:05;;;;;;;8.02;4.60;;;10.20;82.30;;;;;;6188074;23;19997;-81
2024/01/15 00:29:38;;;;;;;6.85;3.78;;;9.90;82.00;;;;;;6145989;23;19996;-81
2024/01/15 00:32:07;;;;;;;7.70;4.32;;;10.10;82.10;;;;;;6188056;23;19997;-81
2024/01/15 00:34:44;;;;;;;7.90;4.40;;;10.30;82.30;;;;;;6186507;23;20013;-81
2024/01/15 00:37:33;;;;;;;7.95;4.38;;;10.20;82.20;;;;;;6163640;23;20012;-82
2024/01/15 00:40:02;;;;;;;7.25;3.92;;;10.20;82.20;;;;;;6213939;23;20005;-83
2024/01/15 00:42:29;;;;;;;6.68;3.95;;;10.20;82.20;;;;;;6164151;23;19989;-83
2024/01/15 00:45:02;;;;;;;6.97;3.97;;;10.30;82.30;;;;;;6213516;23;19993;-81
2024/01/15 00:47:33;;;;;;;7.25;4.15;;;10.20;82.20;;;;;;6201606;23;20008;-81
2024/01/15 00:50:09;;;;;;;8.48;4.70;;;10.20;82.10;;;;;;6139471;23;19996;-82
2024/01/15 00:52:38;;;;;;;8.73;4.38;;;10.20;82.20;;;;;;6116311;23;20012;-82
2024/01/15 00:55:11;;;;;;;8.15;4.32;;;10.20;82.20;;;;;;6181271;23;19995;-81
2024/01/15 00:57:42;;;;;;;7.15;4.07;;;10.20;82.20;;;;;;6188015;23;20017;-82
2024/01/15 01:00:11;;;;;;;6.80;4.10;;;10.20;82.20;;;;;;6214104;23;19989;-83
2024/01/15 01:02:52;;;;;;;7.78;3.90;;;10.20;82.20;;;;;;6212658;23;20023;-81
2024/01/15 01:05:26;;;;;;;7.93;3.95;;;10.10;82.10;;;;;;6187175;23;20000;-81
2024/01/15 01:07:56;;;;;;;7.55;4.32;;;10.20;82.20;;;;;;6187009;23;20015;-80
2024/01/15 01:10:30;;;;;;;7.20;3.90;;;10.10;82.10;;;;;;6187249;23;19993;-81
2024/01/15 01:13:10;;;;;;;6.38;3.50;;;10.20;82.20;;;;;;6212935;23;19989;-82
2024/01/15 01:15:40;;;;;;;7.32;4.10;;;10.10;82.20;;;;;;6188425;23;20000;-81
2024/01/15 01:18:15;;;;;;;7.40;4.20;;;10.20;82.30;;;;;;6162680;23;20005;-81
2024/01/15 01:20:45;;;;;;;6.20;3.60;;;10.20;82.20;;;;;;6156007;23;20053;-83
2024/01/15 01:23:13;;;;;;;8.27;3.78;;;10.10;82.10;;;;;;6163900;23;20004;-81
2024/01/15 01:25:48;;;;;;;7.65;3.83;;;10.10;82.20;;;;;;6213251;23;19995;-81
2024/01/15 01:28:20;;;;;;;7.78;4.00;;;10.10;82.20;;;;;;6190241;23;20020;-81
2024/01/15 01:30:50;;;;;;;7.00;3.80;;;10.00;82.10;;;;;;6213148;23;20001;-81
2024/01/15 01:33:26;;;;;;;6.55;3.60;;;10.10;82.20;;;;;;6213600;23;20049;-81
2024/01/15 01:35:54;;;;;;;8.45;3.85;;;10.20;82.30;;;;;;6162112;23;20012;-81
2024/01/15 01:38:24;;;;;;;7.10;4.30;;;10.10;82.20;;;;;;6187718;23;20005;-80
2024/01/15 01:40:54;;;;;;;7.00;3.60;;;10.10;82.10;;;;;;6162497;23;20036;-81
2024/01/15 01:43:28;;;;;;;6.85;3.70;;;9.50;81.80;;;;;;6162085;23;20001;-84
2024/01/15 01:45:59;;;;;;;6.80;3.83;;;10.10;82.10;;;;;;6211053;23;20012;-81
2024/01/15 01:48:33;;;;;;;5.88;3.22;;;10.10;82.20;;;;;;6187062;23;20052;-81
2024/01/15 01:51:03;;;;;;;6.60;3.38;;;10.10;82.70;;;;;;6187053;23;20003;-81
2024/01/15 01:53:33;;;;;;;6.78;3.72;;;10.10;82.10;;;;;;6179025;23;20057;-82
2024/01/15 01:56:04;;;;;;;6.67;3.70;;;10.10;82.10;;;;;;6179047;23;20003;-81
2024/01/15 01:58:37;;;;;;;7.30;3.88;;;10.20;82.20;;;;;;6187215;23;19989;-81
2024/01/15 02:01:06;;;;;;;7.53;4.00;;;10.10;82.20;;;;;;6187086;23;20012;-81
2024/01/15 02:03:35;;;;;;;6.50;3.45;;;10.10;82.20;;;;;;6187666;23;19985;-81
2024/01/15 02:06:10;;;;;;;7.00;3.80;;;10.10;82.60;;;;;;6188273;23;19993;-81
2024/01/15 02:08:44;;;;;;;6.82;3.53;;;10.10;82.10;;;;;;6213179;23;20003;-81
2024/01/15 02:11:13;;;;;;;7.22;3.58;;;10.20;82.20;;;;;;6209889;23;19997;-83
2024/01/15 02:13:45;;;;;;;7.00;3.50;;;10.10;82.10;;;;;;6210700;23;20076;-83
2024/01/15 02:16:12;;;;;;;7.13;3.47;;;10.10;82.10;;;;;;6138801;23;20375;-81
2024/01/15 02:18:48;;;;;;;6.10;3.22;;;10.20;82.10;;;;;;6187260;23;19994;-81
2024/01/15 02:21:23;;;;;;;7.25;3.50;;;10.20;82.10;;;;;;6212423;23;20005;-84
2024/01/15 02:23:57;;;;;;;6.85;3.55;;;10.10;82.10;;;;;;6162836;23;19997;-81
2024/01/15 02:26:27;;;;;;;6.72;3.58;;;10.10;82.10;;;;;;6213206;23;20040;-81
2024/01/15 02:28:53;;;;;;;7.63;3.75;;;10.10;82.20;;;;;;6187281;23;19985;-81
2024/01/15 02:31:21;;;;;;;6.97;3.33;;;10.30;82.20;;;;;;6186704;23;20032;-82
2024/01/15 02:33:58;;;;;;;5.97;3.17;;;10.00;82.10;;;;;;6186060;23;19996;-81
2024/01/15 02:36:27;;;;;;;5.70;2.88;;;10.20;82.20;;;;;;6187332;23;19993;-82
2024/01/15 02:38:57;;;;;;;6.75;3.13;;;10.20;82.20;;;;;;6163445;23;20052;-81
2024/01/15 02:41:29;;;;;;;6.38;3.35;;;10.00;82.10;;;;;;6186038;23;19989;-84
2024/01/15 02:43:59;;;;;;;5.80;2.90;;;10.20;82.20;;;;;;6202714;23;19989;-81
2024/01/15 02:46:34;;;;;;;6.10;3.20;;;10.10;82.20;;;;;;6138438;23;19993;-81
2024/01/15 02:49:02;;;;;;;5.65;2.90;;;10.20;82.20;;;;;;6212765;23;20499;-84
2024/01/15 02:51:31;;;;;;;6.20;3.10;;;10.10;82.10;;;;;;6162329;23;20028;-82
2024/01/15 02:53:57;;;;;;;5.60;3.20;;;10.00;82.30;;;;;;6187102;23;19989;-82
2024/01/15 02:56:23;;;;;;;6.28;3.22;;;10.20;82.20;;;;;;6185650;23;20053;-81
2024/01/15 02:58:50;;;;;;;6.00;3.03;;;10.10;82.20;;;;;;6174306;23;19989;-83
2024/01/15 03:01:21;;;;;;;5.38;2.85;;;11.50;83.00;;;;;;6185865;23;19989;-82
2024/01/15 03:03:49;;;;;;;6.87;2.80;;;10.20;82.30;;;;;;6185530;23;19989;-81
2024/01/15 03:06:18;;;;;;;6.35;3.08;;;10.00;82.20;;;;;;6211376;23;20251;-82
2024/01/15 03:08:54;;;;;;;5.97;2.90;;;10.20;82.30;;;;;;6187452;23;20019;-81
2024/01/15 03:11:26;;;;;;;4.82;2.63;;;10.10;82.20;;;;;;6212743;23;20052;-81
2024/01/15 03:13:55;;;;;;;5.82;3.00;;;10.20;82.30;;;;;;6213050;23;19985;-81
2024/01/15 03:16:21;;;;;;;5.78;3.10;;;10.20;82.30;;;;;;6187075;23;19997;-81
2024/01/15 03:18:53;;;;;;;5.28;2.70;;;10.00;82.20;;;;;;6212260;23;19989;-82
2024/01/15 03:21:20;;;;;;;6.53;3.05;;;10.10;82.30;;;;;;6162310;23;20013;-81
2024/01/15 03:23:48;;;;;;;5.93;3.00;;;10.10;82.30;;;;;;6186903;23;20080;-81
2024/01/15 03:26:15;;;;;;;5.53;3.00;;;10.10;82.30;;;;;;6187059;23;20001;-81
2024/01/15 03:28:46;;;;;;;5.70;2.95;;;10.10;82.30;;;;;;6187073;23;20004;-82
2024/01/15 03:31:12;;;;;;;5.65;2.70;;;9.80;82.20;;;;;;6163060;23;20021;-81
2024/01/15 03:33:40;;;;;;;5.40;2.78;;;10.20;82.40;;;;;;6188052;23;19993;-81
2024/01/15 03:36:14;;;;;;;6.95;3.42;;;10.70;82.60;;;;;;6188708;23;20012;-83
2024/01/15 03:38:42;;;;;;;5.70;2.97;;;10.00;82.20;;;;;;6209331;23;20016;-81
2024/01/15 03:41:10;;;;;;;5.80;2.70;;;10.10;82.30;;;;;;6188406;23;20012;-83
2024/01/15 03:43:39;;;;;;;6.05;2.83;;;10.10;82.30;;;;;;6188992;23;19989;-82
2024/01/15 03:46:12;;;;;;;7.05;2.38;;;10.00;82.30;;;;;;6189772;23;20016;-82
2024/01/15 03:48:49;;;;;;;5.60;2.78;;;10.10;82.40;;;;;;6189199;23;19996;-82
2024/01/15 03:55:19;;;;;;;5.88;3.00;;;10.10;82.40;;;;;;6214909;23;20004;-81
2024/01/15 04:01:22;;;;;;;5.68;2.85;;;9.90;82.20;;;;;;6214991;23;19997;-80
2024/01/15 04:04:10;;;;;;;5.25;2.60;;;10.00;82.20;;;;;;6212779;23;20001;-81
2024/01/15 04:10:12;;;;;;;5.03;2.30;;;10.00;82.20;;;;;;6214664;23;20000;-81
2024/01/15 04:13:27;;;;;;;5.97;2.90;;;10.00;82.20;;;;;;6136351;23;20052;-81
2024/01/15 04:16:41;;;;;;;6.15;2.45;;;9.90;82.10;;;;;;6213099;23;20036;-81
2024/01/15 04:20:01;;;;;;;5.45;2.63;;;10.10;82.20;;;;;;6151851;23;20085;-81
2024/01/15 04:23:16;;;;;;;5.35;2.83;;;10.10;82.20;;;;;;6153003;23;20001;-81
2024/01/15 04:25:45;;;;;;;5.43;2.70;;;10.00;82.20;;;;;;6117518;23;20000;-80
2024/01/15 04:28:32;;;;;;;4.90;2.28;;;10.00;82.20;;;;;;6127663;23;20026;-81
2024/01/15 04:36:18;;;;;;;5.10;2.45;;;10.00;82.20;;;;;;6202749;23;19900;-81
2024/01/15 04:38:46;;;;;;;4.57;2.10;;;10.00;82.20;;;;;;6187460;23;20000;-82
2024/01/15 04:46:29;;;;;;;5.03;2.50;;;10.00;82.20;;;;;;6203993;23;20068;-83
2024/01/15 04:48:55;;;;;;;;;;;10.00;82.20;;;;;;6188672;23;19993;-84
2024/01/15 04:51:26;;;;;;;5.50;2.40;;;10.00;82.20;;;;;;6207469;23;19897;-84
2024/01/15 04:53:55;;;;;;;6.35;2.65;;;10.00;82.20;;;;;;6159586;23;19986;-82
2024/01/15 04:56:25;;;;;;;5.10;2.33;;;10.00;82.20;;;;;;6182725;23;20013;-82
2024/01/15 04:58:55;;;;;;;4.50;2.15;;;9.90;82.10;;;;;;6157912;23;19993;-84
2024/01/15 05:01:26;;;;;;;4.57;2.38;;;10.20;82.30;;;;;;6180352;23;20016;-79
2024/01/15 05:06:30;;;;;;;4.65;2.15;;;10.00;82.20;;;;;;6174178;23;20047;-84
2024/01/15 05:08:57;;;;;;;4.90;2.40;;;9.90;82.10;;;;;;6187889;23;19990;-85
2024/01/15 05:11:25;;;;;;;5.30;2.28;;;10.00;82.20;;;;;;6206005;23;20107;-81
2024/01/15 05:14:02;;;;;;;4.68;1.95;;;10.00;82.20;;;;;;6185189;23;19989;-81
2024/01/15 05:16:52;;;;;;;4.28;2.03;;;10.50;82.40;;;;;;6207972;23;20020;-81
2024/01/15 05:29:39;;;;;;;5.75;2.28;;;10.00;82.70;;;;;;6209592;23;20016;-84
2024/01/15 05:32:08;;;;;;;4.28;2.15;;;10.00;82.20;;;;;;6187227;23;20028;-84
2024/01/15 05:37:10;;;;;;;4.97;2.10;;;10.00;82.20;;;;;;6207737;23;20005;-85
2024/01/15 05:42:11;;;;;;;5.57;2.53;;;10.00;82.20;;;;;;6198385;23;20084;-83
2024/01/15 05:44:53;;;;;;;4.85;2.08;;;10.20;82.40;;;;;;6213538;23;19997;-84
2024/01/15 05:47:47;;;;;;;3.53;1.85;;;9.90;82.10;;;;;;6185155;23;20001;-82
2024/01/15 05:50:36;;;;;;;4.55;2.10;;;9.90;82.20;;;;;;6213815;23;19993;-82
2024/01/15 05:53:55;;;;;;;5.70;2.00;;;10.00;82.20;;;;;;6213514;23;20001;-82
2024/01/15 05:57:15;;;;;;;4.10;1.98;;;10.00;82.20;;;;;;6188431;23;20018;-82
2024/01/15 06:02:16;;;;;;;5.22;2.08;;;10.00;82.20;;;;;;6144443;23;20009;-82
2024/01/15 06:04:43;;;;;;;4.35;2.00;;;9.90;82.20;;;;;;6187572;23;20004;-81
2024/01/15 06:12:20;;;;;;;4.57;1.85;;;10.00;82.20;;;;;;6175939;23;20039;-82
2024/01/15 06:14:47;;;;;;;4.00;1.80;;;10.00;82.30;;;;;;6187071;23;19997;-82
2024/01/15 06:17:13;;;;;;;4.72;1.90;;;10.00;82.30;;;;;;6187294;23;20014;-82
2024/01/15 06:19:39;;;;;;;3.53;1.70;;;10.00;82.30;;;;;;6187215;23;19986;-82
2024/01/15 06:22:05;;;;;;;4.30;1.90;;;10.00;82.30;;;;;;6186716;23;20009;-84
2024/01/15 06:37:34;;;;;;;4.03;1.85;;;9.90;82.20;;;;;;6175618;23;20005;-82
2024/01/15 06:40:45;;;;;;;4.28;1.88;;;10.00;82.30;;;;;;6188076;23;20016;-84
2024/01/15 06:47:19;;;;;;;4.70;1.75;;;10.00;82.30;;;;;;6183283;23;20031;-82
2024/01/15 06:52:46;;;;;;;5.03;1.80;;;9.90;82.20;;;;;;6168276;23;20009;-85
2024/01/15 06:55:17;;;;;;;3.38;1.77;;;9.80;82.10;;;;;;6186571;23;20036;-83
2024/01/15 07:16:20;;;;;;;3.88;1.48;;;9.90;82.20;;;;;;6191884;23;20005;-81
2024/01/15 07:21:22;;;;;;;3.75;1.60;;;9.90;82.30;;;;;;6168041;23;20005;-82
2024/01/15 07:23:51;;;;;;;10.20;2.00;;;9.80;82.20;;;;;;6187696;23;20020;-81
2024/01/15 07:26:17;;;;;;;14.50;2.17;;;9.90;82.00;;;;;;6186701;23;20029;-82
2024/01/15 07:28:45;;;;;;;22.83;2.63;;;10.00;81.60;;;;;;6187585;23;19993;-80
2024/01/15 07:31:12;;;;;;;15.32;2.25;;;10.10;81.40;;;;;;6160936;23;20005;-80
2024/01/15 07:33:41;;;;;;;15.77;2.05;;;9.90;81.40;;;;;;6208938;23;20000;-81
2024/01/15 07:36:08;;;;;;;24.60;2.80;;;10.10;81.50;;;;;;6203123;23;20032;-79
2024/01/15 07:38:34;;;;;;;11.93;2.28;;;10.20;81.50;;;;;;6186387;23;20013;-80
2024/01/15 07:41:01;;;;;;;19.00;2.53;;;9.90;81.30;;;;;;6188815;23;20008;-81
2024/01/15 07:43:28;;;;;;;14.57;2.08;;;9.90;81.20;;;;;;6188995;23;20004;-81
2024/01/15 07:45:54;;;;;;;10.68;2.40;;;10.10;81.20;;;;;;6189114;23;19991;-81
2024/01/15 07:48:27;;;;;;;14.77;2.70;;;10.00;81.30;;;;;;6188471;23;19989;-81
2024/01/15 07:50:54;;;;;;;11.85;2.42;;;9.90;81.40;;;;;;6189176;23;20061;-83
2024/01/15 07:53:20;;;;;;;11.07;2.17;;;9.90;81.40;;;;;;6188614;23;19996;-80
2024/01/15 07:55:49;;;;;;;9.20;2.00;;;9.80;81.50;;;;;;6188552;23;19993;-81
2024/01/15 07:58:35;;;;;;;11.95;2.00;;;10.10;81.80;;;;;;6188821;23;19993;-80
2024/01/15 08:01:03;;;;;;;8.70;1.92;;;9.90;81.70;;;;;;6188639;23;19989;-81
2024/01/15 08:03:30;;;;;;;10.65;1.90;;;9.80;81.70;;;;;;6189058;23;20005;-83
2024/01/15 08:06:02;;;;;;;8.60;1.92;;;9.60;81.50;;;;;;6189050;23;19994;-81
2024/01/15 08:08:29;;;;;;;8.65;1.90;;;10.00;81.80;;;;;;6214390;23;19993;-81
2024/01/15 08:10:56;;;;;;;11.80;1.90;;;9.90;81.70;;;;;;6187876;23;20016;-81
2024/01/15 08:13:22;;;;;;;10.43;1.90;;;9.90;81.80;;;;;;6188337;23;19989;-80
2024/01/15 08:15:48;;;;;;;6.72;1.60;;;9.80;81.70;;;;;;6188664;23;20009;-82
2024/01/15 08:18:16;;;;;;;5.20;1.77;;;10.70;82.30;;;;;;6214171;23;20009;-81
2024/01/15 08:20:42;;;;;;;7.65;1.83;;;9.90;81.80;;;;;;6188736;23;20024;-81
2024/01/15 08:23:18;;;;;;;13.10;1.73;;;9.90;81.90;;;;;;6187286;23;20048;-80
2024/01/15 08:25:44;;;;;;;8.60;1.73;;;9.90;81.90;;;;;;6188333;23;19993;-81
2024/01/15 08:28:10;;;;;;;6.05;1.67;;;9.90;81.90;;;;;;6188275;23;19985;-81
2024/01/15 08:30:37;;;;;;;7.03;1.70;;;10.00;82.00;;;;;;6188589;23;20009;-81
2024/01/15 08:33:07;;;;;;;5.47;1.40;;;9.90;81.90;;;;;;6188177;23;20012;-80
2024/01/15 08:35:33;;;;;;;4.80;1.60;;;9.80;81.80;;;;;;6163664;23;19986;-82
2024/01/15 08:38:02;;;;;;;10.52;2.00;;;9.90;81.90;;;;;;6187892;23;20011;-80
2024/01/15 08:40:28;;;;;;;5.53;1.60;;;9.90;81.90;;;;;;6188410;23;20012;-81
2024/01/15 08:42:56;;;;;;;7.65;1.50;;;9.90;82.00;;;;;;6164074;23;19993;-83
2024/01/15 08:45:28;;;;;;;6.47;1.58;;;9.80;82.00;;;;;;6187732;23;20005;-81
2024/01/15 08:47:54;;;;;;;5.95;1.60;;;9.90;82.10;;;;;;6188294;23;20460;-81
2024/01/15 08:50:21;;;;;;;5.40;1.52;;;9.80;82.00;;;;;;6187748;23;20008;-81
2024/01/15 08:52:49;;;;;;;5.25;1.40;;;9.80;82.00;;;;;;6212013;23;20001;-81
2024/01/15 08:55:15;;;;;;;4.20;1.30;;;9.80;82.00;;;;;;6188082;23;19997;-81
2024/01/15 08:57:43;;;;;;;5.00;1.50;;;9.80;82.00;;;;;;6187979;23;20034;-82
2024/01/15 09:00:11;;;;;;;5.38;1.65;;;9.90;82.10;;;;;;6188176;23;20036;-81
2024/01/15 09:02:37;;;;;;;5.35;1.40;;;9.80;82.00;;;;;;6187592;23;20019;-82
2024/01/15 09:05:05;;;;;;;4.22;1.33;;;9.90;82.00;;;;;;6138897;23;19989;-82
2024/01/15 09:07:32;;;;;;;5.40;1.50;;;9.80;82.00;;;;;;6163365;23;19993;-81
2024/01/15 09:09:59;;;;;;;5.13;1.42;;;10.10;82.20;;;;;;6188340;23;20009;-82
2024/01/15 09:12:26;;;;;;;6.00;1.45;;;9.90;82.20;;;;;;6187897;23;20001;-81
2024/01/15 09:14:56;;;;;;;5.47;1.30;;;9.90;82.10;;;;;;6187468;23;19989;-80
2024/01/15 09:17:28;;;;;;;3.92;1.30;;;9.80;82.10;;;;;;6187938;23;19992;-82
2024/01/15 09:20:05;;;;;;;3.85;1.30;;;9.90;82.20;;;;;;6213566;23;20012;-81
2024/01/15 09:22:32;;;;;;;4.88;1.40;;;9.90;82.20;;;;;;6186839;23;20001;-80
2024/01/15 09:24:59;;;;;;;4.45;1.30;;;10.10;82.30;;;;;;6187223;23;19990;-81
2024/01/15 09:27:26;;;;;;;3.97;1.30;;;9.90;82.20;;;;;;6187645;23;20000;-81
2024/01/15 09:29:55;;;;;;;4.78;1.45;;;10.00;82.30;;;;;;6188156;23;20001;-81
2024/01/15 09:32:21;;;;;;;3.05;1.52;;;9.90;82.20;;;;;;6187107;23;20008;-83
2024/01/15 09:34:47;;;;;;;5.35;1.08;;;9.90;82.30;;;;;;6187788;23;19997;-83
2024/01/15 09:37:18;;;;;;;3.95;1.38;;;9.80;82.10;;;;;;6187291;23;20019;-80
2024/01/15 09:39:48;;;;;;;3.42;1.20;;;9.80;82.20;;;;;;6187499;23;19996;-81
2024/01/15 09:42:17;;;;;;;4.00;1.02;;;9.90;82.20;;;;;;6187188;23;19996;-83
2024/01/15 09:44:45;;;;;;;3.60;1.10;;;9.90;82.20;;;;;;6187487;23;19985;-82
2024/01/15 09:47:13;;;;;;;4.82;1.42;;;9.80;82.10;;;;;;6163034;23;20048;-82
2024/01/15 09:49:42;;;;;;;5.05;1.38;;;9.80;82.10;;;;;;6187254;23;20057;-81
2024/01/15 09:52:12;;;;;;;4.63;1.20;;;9.90;82.20;;;;;;6186760;23;20076;-81
2024/01/15 09:54:40;;;;;;;2.72;1.10;;;9.90;82.20;;;;;;6185466;23;20009;-82
2024/01/15 09:57:06;;;;;;;8.63;1.50;;;9.80;82.10;;;;;;6187477;23;19989;-80
2024/01/15 09:59:35;;;;;;;3.25;0.90;;;9.90;82.20;;;;;;6163025;23;20012;-81
2024/01/15 10:02:05;;;;;;;3.15;1.10;;;9.90;82.20;;;;;;6188411;23;20009;-80
2024/01/15 10:04:32;;;;;;;5.22;1.27;;;9.90;82.20;;;;;;6187832;23;19993;-81
2024/01/15 10:07:00;;;;;;;4.10;1.23;;;9.90;82.20;;;;;;6186779;23;20527;-81
2024/01/15 10:09:28;;;;;;;3.42;1.13;;;9.90;82.20;;;;;;6187136;23;20020;-82
2024/01/15 10:12:00;;;;;;;5.07;1.15;;;9.90;82.20;;;;;;6187298;23;19997;-81
2024/01/15 10:14:27;;;;;;;3.53;1.30;;;9.90;82.20;;;;;;6193049;23;20016;-81
2024/01/15 10:16:55;;;;;;;4.13;1.20;;;10.10;82.30;;;;;;6162422;23;20005;-81
2024/01/15 10:19:24;;;;;;;3.95;1.23;;;9.80;82.10;;;;;;6162480;23;19985;-79
2024/01/15 10:21:56;;;;;;;3.35;1.15;;;9.90;82.10;;;;;;6187646;23;20001;-81
2024/01/15 10:24:22;;;;;;;5.43;1.40;;;9.90;82.10;;;;;;6186825;23;20025;-81
2024/01/15 10:26:50;;;;;;;2.58;1.10;;;9.90;82.10;;;;;;6187049;23;19993;-82
2024/01/15 10:29:16;;;;;;;4.72;1.20;;;9.80;82.10;;;;;;6177176;23;19996;-80
2024/01/15 10:31:44;;;;;;;4.53;1.10;;;9.90;82.10;;;;;;6212749;23;20001;-81
2024/01/15 10:34:15;;;;;;;3.30;1.30;;;9.90;82.20;;;;;;6187369;23;19992;-82
2024/01/15 10:36:55;;;;;;;2.42;1.10;;;9.90;82.20;;;;;;6187328;23;19989;-82
2024/01/15 10:39:27;;;;;;;3.45;1.23;;;10.00;82.30;;;;;;6187519;23;19989;-81
2024/01/15 10:41:55;;;;;;;4.07;1.38;;;10.00;82.20;;;;;;6186726;23;19989;-81
2024/01/15 10:44:23;;;;;;;2.83;1.40;;;9.80;82.10;;;;;;6187230;23;19992;-81
2024/01/15 10:46:51;;;;;;;2.80;1.10;;;9.90;82.60;;;;;;6164259;23;20044;-80
2024/01/15 10:49:20;;;;;;;2.47;1.10;;;10.00;82.20;;;;;;6165490;23;20040;-81
2024/01/15 10:51:51;;;;;;;2.50;1.20;;;9.80;82.10;;;;;;6190203;23;20013;-81
2024/01/15 10:54:23;;;;;;;3.47;1.05;;;10.00;82.10;;;;;;6215002;23;19989;-83
2024/01/15 10:56:54;;;;;;;3.03;1.05;;;10.00;82.00;;;;;;6188539;23;20044;-81
2024/01/15 10:59:23;;;;;;;3.45;1.15;;;9.90;81.90;;;;;;6189376;23;20005;-82
2024/01/15 11:01:57;;;;;;;3.35;1.27;;;10.00;81.90;;;;;;6214017;23;20005;-80
2024/01/15 11:04:35;;;;;;;2.65;1.02;;;10.10;82.10;;;;;;6212956;23;20030;-82
2024/01/15 11:07:28;;;;;;;1.88;0.90;;;9.80;81.90;;;;;;6163794;23;19997;-81
2024/01/15 11:09:54;;;;;;;3.15;1.00;;;10.10;82.20;;;;;;6164496;23;19985;-81
2024/01/15 11:12:22;;;;;;;3.85;1.10;;;10.00;82.10;;;;;;6163966;23;19997;-81
2024/01/15 11:14:50;;;;;;;4.00;1.17;;;10.10;82.20;;;;;;6189088;23;20005;-81
2024/01/15 11:17:17;;;;;;;1.77;0.95;;;10.00;82.20;;;;;;6188820;23;19993;-80
2024/01/15 11:19:54;;;;;;;2.45;1.10;;;9.90;82.10;;;;;;6163092;23;19996;-82
2024/01/15 11:22:48;;;;;;;3.45;1.20;;;10.00;82.20;;;;;;6214413;23;20009;-81
2024/01/15 11:25:20;;;;;;;2.95;1.08;;;9.80;82.10;;;;;;6214437;23;20001;-81
2024/01/15 11:27:52;;;;;;;3.83;1.58;;;9.80;82.00;;;;;;6166239;23;20001;-82
2024/01/15 11:30:20;;;;;;;2.88;1.02;;;9.90;82.10;;;;;;6188982;23;19993;-81
2024/01/15 11:32:51;;;;;;;3.22;1.10;;;9.80;82.00;;;;;;6188448;23;20069;-81
2024/01/15 11:35:18;;;;;;;2.38;0.93;;;9.80;82.00;;;;;;6164834;23;20017;-81
2024/01/15 11:37:52;;;;;;;2.10;0.90;;;9.90;82.00;;;;;;6164993;23;19993;-81
2024/01/15 11:40:23;;;;;;;2.60;1.02;;;9.90;82.10;;;;;;6186209;23;19989;-80
2024/01/15 11:42:52;;;;;;;1.87;0.90;;;9.90;82.10;;;;;;6157917;23;20189;-82
2024/01/15 11:45:22;;;;;;;2.70;0.98;;;10.00;82.20;;;;;;6188764;23;19996;-82
2024/01/15 11:48:02;;;;;;;2.22;0.90;;;9.80;82.10;;;;;;6188790;23;20020;-81
2024/01/15 11:50:33;;;;;;;4.20;1.30;;;9.80;82.00;;;;;;6188790;23;20064;-82
2024/01/15 11:53:06;;;;;;;2.65;1.05;;;9.90;82.20;;;;;;6188143;23;20013;-80
2024/01/15 11:55:41;;;;;;;2.78;1.13;;;10.10;82.20;;;;;;6164526;23;20056;-81
2024/01/15 11:58:10;;;;;;;2.50;0.90;;;9.80;82.10;;;;;;6188664;23;19996;-83
2024/01/15 12:04:06;;;;;;;2.15;0.90;;;9.90;82.20;;;;;;6109716;23;20070;-80
2024/01/15 12:06:34;;;;;;;2.38;0.90;;;9.80;82.10;;;;;;6213187;23;20053;-81
2024/01/15 12:09:08;;;;;;;2.65;0.98;;;9.90;82.10;;;;;;6163149;23;20021;-80
2024/01/15 12:11:39;;;;;;;2.45;1.00;;;9.90;82.20;;;;;;6188434;23;19997;-80
2024/01/15 12:14:07;;;;;;;;;;;9.90;82.10;;;;;;6213742;23;19989;-82
2024/01/15 12:16:35;;;;;;;3.25;1.00;;;9.90;82.20;;;;;;6188375;23;19889;-80
2024/01/15 12:19:01;;;;;;;1.95;1.00;;;9.90;82.10;;;;;;6139891;23;19993;-80
2024/01/15 12:21:27;;;;;;;2.50;1.00;;;10.10;82.20;;;;;;6187650;23;19993;-81
2024/01/15 12:23:56;;;;;;;3.58;1.00;;;9.90;82.10;;;;;;6163790;23;19993;-82
2024/01/15 12:26:24;;;;;;;2.90;0.98;;;9.80;82.10;;;;;;6187658;23;19997;-81
2024/01/15 12:28:51;;;;;;;1.98;0.80;;;9.90;82.20;;;;;;6209454;23;19997;-80
2024/01/15 12:31:20;;;;;;;2.63;1.10;;;9.90;82.10;;;;;;6186675;23;20031;-81
2024/01/15 12:33:47;;;;;;;1.63;0.93;;;9.90;82.20;;;;;;6188470;23;19989;-81
2024/01/15 12:36:17;;;;;;;3.00;0.90;;;9.90;82.20;;;;;;6187715;23;19989;-83
2024/01/15 12:38:46;;;;;;;1.85;0.88;;;9.90;82.20;;;;;;6212297;23;19993;-84
2024/01/15 12:41:15;;;;;;;1.55;0.80;;;9.90;82.10;;;;;;6213109;23;19989;-82
2024/01/15 12:43:45;;;;;;;3.22;0.85;;;10.00;82.30;;;;;;6212821;23;20000;-80
2024/01/15 12:46:11;;;;;;;3.13;0.98;;;9.90;82.10;;;;;;6187801;23;19989;-80
2024/01/15 12:48:38;;;;;;;1.85;0.80;;;9.90;82.10;;;;;;6187642;23;20003;-83
2024/01/15 12:51:06;;;;;;;1.48;0.90;;;9.90;82.10;;;;;;6162285;23;20001;-80
2024/01/15 12:53:34;;;;;;;2.55;1.00;;;9.80;82.00;;;;;;6187303;23;19989;-81
2024/01/15 12:56:02;;;;;;;1.58;0.93;;;10.00;82.20;;;;;;6187862;23;19989;-80
2024/01/15 12:58:31;;;;;;;3.83;1.10;;;9.90;82.30;;;;;;6188033;23;20068;-80
2024/01/15 13:01:03;;;;;;;2.38;1.00;;;9.90;82.30;;;;;;6187744;23;20087;-82
2024/01/15 13:03:33;;;;;;;2.25;0.85;;;9.90;82.20;;;;;;6140985;23;20008;-81
2024/01/15 13:06:00;;;;;;;2.70;1.00;;;9.90;82.20;;;;;;6187174;23;19989;-82
2024/01/15 13:08:28;;;;;;;1.90;0.93;;;9.90;82.20;;;;;;6187872;23;19989;-81
2024/01/15 13:10:56;;;;;;;2.42;0.93;;;9.40;82.00;;;;;;6187932;23;19989;-81
2024/01/15 13:13:24;;;;;;;2.00;0.90;;;9.90;82.30;;;;;;6188406;23;20016;-82
2024/01/15 13:15:51;;;;;;;1.52;0.80;;;9.80;82.20;;;;;;6187417;23;20012;-81
2024/01/15 13:18:20;;;;;;;1.13;0.70;;;9.80;82.10;;;;;;6187651;23;20004;-81
2024/01/15 13:20:48;;;;;;;2.08;0.90;;;9.90;82.20;;;;;;6162717;23;19989;-80
2024/01/15 13:23:18;;;;;;;1.38;0.70;;;9.80;82.10;;;;;;6187616;23;20016;-81
2024/01/15 13:25:45;;;;;;;3.40;1.30;;;9.90;82.20;;;;;;6162877;23;20020;-81
2024/01/15 13:28:13;;;;;;;2.83;1.00;;;9.80;82.10;;;;;;6187344;23;19997;-81
2024/01/15 13:30:40;;;;;;;3.00;0.90;;;9.80;82.70;;;;;;6187680;23;20001;-80
2024/01/15 13:33:08;;;;;;;2.38;0.90;;;9.90;82.20;;;;;;6162174;23;20049;-80
2024/01/15 13:35:35;;;;;;;1.55;0.77;;;9.90;82.20;;;;;;6187240;23;19997;-80
2024/01/15 13:38:05;;;;;;;2.45;1.00;;;9.90;82.20;;;;;;6163059;23;20005;-81
2024/01/15 13:40:33;;;;;;;1.92;0.82;;;9.90;82.30;;;;;;6187616;23;19989;-81
2024/01/15 13:43:01;;;;;;;1.88;0.90;;;9.80;82.20;;;;;;6187036;23;20043;-81
2024/01/15 13:45:31;;;;;;;2.35;0.88;;;10.00;82.30;;;;;;6186514;23;19989;-81
2024/01/15 13:47:59;;;;;;;2.30;1.00;;;9.90;82.20;;;;;;6212700;23;20182;-84
2024/01/15 13:50:31;;;;;;;2.08;0.88;;;9.90;82.20;;;;;;6212703;23;19993;-81
2024/01/15 13:53:04;;;;;;;1.73;0.90;;;9.90;82.10;;;;;;6188454;23;20020;-81
2024/01/15 13:55:31;;;;;;;1.70;0.93;;;9.90;82.20;;;;;;6187703;23;19985;-84
2024/01/15 13:57:58;;;;;;;2.47;1.00;;;9.90;82.20;;;;;;6161707;23;19999;-82
2024/01/15 14:00:27;;;;;;;2.92;1.00;;;9.90;82.20;;;;;;6187131;23;20009;-81
2024/01/15 14:02:58;;;;;;;1.88;0.80;;;10.60;82.60;;;;;;6162940;23;19995;-82
2024/01/15 14:05:26;;;;;;;2.50;0.95;;;9.80;82.10;;;;;;6162521;23;19989;-80
2024/01/15 14:07:52;;;;;;;2.42;0.90;;;9.90;82.10;;;;;;6212738;23;20117;-84
2024/01/15 14:10:19;;;;;;;1.98;0.80;;;9.90;82.10;;;;;;6162490;23;19993;-82
2024/01/15 14:12:45;;;;;;;1.65;0.80;;;9.90;82.10;;;;;;6187304;23;19997;-82
2024/01/15 14:15:11;;;;;;;1.88;0.77;;;9.80;82.10;;;;;;6160647;23;20021;-81
2024/01/15 14:17:39;;;;;;;3.15;0.80;;;9.80;82.10;;;;;;6212041;23;20020;-83
2024/01/15 14:20:10;;;;;;;1.85;0.77;;;9.90;82.20;;;;;;6212349;23;19985;-80
2024/01/15 14:22:48;;;;;;;2.28;0.73;;;9.80;82.10;;;;;;6213116;23;20481;-81
2024/01/15 14:25:36;;;;;;;2.85;0.75;;;9.90;82.20;;;;;;6212414;23;20004;-82
2024/01/15 14:28:03;;;;;;;2.10;0.90;;;9.80;82.10;;;;;;6182806;23;20012;-82
2024/01/15 14:30:32;;;;;;;1.73;0.80;;;9.80;82.10;;;;;;6186021;23;20009;-81
2024/01/15 14:33:03;;;;;;;2.22;1.00;;;9.90;82.20;;;;;;6212566;23;20012;-81
2024/01/15 14:35:32;;;;;;;3.22;1.10;;;10.00;82.20;;;;;;6187629;23;20019;-80
2024/01/15 14:37:58;;;;;;;1.05;0.70;;;9.90;82.30;;;;;;6186509;23;19985;-81
2024/01/15 14:40:27;;;;;;;3.30;0.90;;;9.90;82.10;;;;;;6187410;23;19997;-81
2024/01/15 14:42:56;;;;;;;1.40;0.80;;;9.90;82.20;;;;;;6167794;23;20005;-79
2024/01/15 14:45:22;;;;;;;1.52;0.82;;;9.80;82.20;;;;;;6174362;23;19996;-81
2024/01/15 14:47:48;;;;;;;2.42;0.80;;;10.80;82.80;;;;;;6184508;23;19989;-81
2024/01/15 14:50:14;;;;;;;2.90;0.77;;;9.80;82.10;;;;;;6187328;23;20064;-80